Main page
METAR-TAF:

METAR-TAF

Airports :

L.F. Wade International Airport

Bermuda, Bermuda

latitude: 32-22N, longitude: 064-41W, elevation: 6 m

Current weather observation

The report was made 33 minutes ago, at 00:55 UTC
Wind 5 kt from the North/Northwest
Temperature 18°C
Humidity 64%
Pressure 1016 hPa
Visibility 10 km or more
Few clouds at a height of 3000 ft
Broken clouds at a height of 18000 ft
Broken clouds at a height of 30000 ft

METAR: TXKF 110055Z 33005KT 9999 FEW030 BKN180 BKN300 18/11 Q1016

Time: 22:28 (01:28 UTC)

Forecast

The report was made 1 hour and 46 minutes ago, at 23:42 UTC
Forecast valid from 11 at 00 UTC to 11 at 24 UTC
Wind 8 kt from the West/Northwest
Visibility 10 km or more
Few clouds at a height of 3000 ft
Scattered clouds at a height of 30000 ft
Becoming
from 11 at 16 UTC to 11 at 19 UTC
Wind 15 kt from the West/Southwest

TAF: TXKF 102342Z 1100/1124 30008KT 9999 FEW030 SCT300 BECMG 1116/1119 24015KT

Weather observations and forecasts of more than 4000 airports (METAR and TAF reports).

The available stations are represented by yellow and red dots on the map.

Hover mouse over dot to see the name of the station.

Then click to see weather observations and forecasts.

To change the map : click on the green buttons with a black cross to zoom in, on the green button with a dash to zoom out, or on the green arrows for adjacent maps.


METAR-TAF: